Lokaal brand risico:
CBI


Regionaal brand risico: Meer informatie


Weerstation
Sluispark-LeuvenLeuven-Sluispark



Het weer levert geen direct gevaar op.    Er zijn geen waarschuwingen afgegeven.

Nabijgelegen vliegvelden - METAR rapporten

   
EBBR - Wilsele bij Leuven
Gewijzigd: 21-07-2019 19:20
Helder    Wind: WZW 7.4 km/h
Helder
Wind: Wind: WZW 7.4 km/h
Temperatuur: 24°C
Dauwpunt: 12°C
Vochtigheid: 47%
Barometer: 1022 hPa
Zicht: meer dan 10 km
Bewolking: Helder
EBBR 211720Z 24004KT 210V300 CAVOK 24/12 Q1022 NOSIG
EBAW - Antwerp
Gewijzigd: 21-07-2019 19:20
Helder    Wind: NW 9.3 km/h
Helder
Wind: Wind: NW 9.3 km/h
Temperatuur: 23°C
Dauwpunt: 13°C
Vochtigheid: 53%
Barometer: 1022 hPa
Zicht: meer dan 10 km
Bewolking: Helder
EBAW 211720Z 32005KT 290V350 CAVOK 23/13 Q1022 NOSIG
EBLG - Li├Ęge
Gewijzigd: 21-07-2019 19:20
Licht bewolkt    Wind: Westen 13 km/h
Licht bewolkt
Wind: Wind: Westen 13 km/h
Temperatuur: 23°C
Dauwpunt: 12°C
Vochtigheid: 50%
Barometer: 1022 hPa
Bewolking: Licht bewolkt
Zicht: meer dan 10 km
Bewolking: Licht bewolkt 1432.6 m
EBLG 211720Z 28007KT 9999 FEW047 23/12 Q1022 NOSIG
EBCV - Mons/Bergen
Gewijzigd: 21-07-2019 19:25
Helder    Wind: Westen 9.3 km/h
Helder
Wind: Wind: Westen 9.3 km/h
Temperatuur: 24°C
Dauwpunt: 11°C
Vochtigheid: 44%
Barometer: 1023 hPa
Bewolking: Helder
Zicht: meer dan 10 km
Bewolking: Helder
EBCV 211725Z AUTO 26005KT 9999 NCD 24/11 Q1023 BLU
EHBK - Maastricht
Gewijzigd: 21-07-2019 19:25
Gedeeltelijk bewolkt    Wind: Westen 13 km/h
Gedeeltelijk bewolkt
Wind: Wind: Westen 13 km/h
Temperatuur: 24°C
Dauwpunt: 12°C
Vochtigheid: 47%
Barometer: 1022 hPa
Bewolking: Gedeeltelijk bewolkt
Zicht: meer dan 10 km
Bewolking: Gedeeltelijk bewolkt
EHBK 211725Z AUTO 26007KT 200V300 9999 NSC 24/12 Q1022 NOSIG
ELLX - Luxemburg
Gewijzigd: 21-07-2019 19:20
Helder    Wind: Westen 16.7 km/h
Helder
Wind: Wind: Westen 16.7 km/h
Temperatuur: 25°C
Dauwpunt: 11°C
Vochtigheid: 42%
Barometer: 1023 hPa
Zicht: meer dan 10 km
Bewolking: Helder
ELLX 211720Z 26009KT 220V290 CAVOK 25/11 Q1023 NOSIG
EBOS - Oostende
Gewijzigd: 21-07-2019 19:20
Licht bewolkt    Wind: Westen 18.5 km/h
Licht bewolkt
Wind: Wind: Westen 18.5 km/h
Temperatuur: 20°C
Dauwpunt: 13°C
Vochtigheid: 64%
Barometer: 1023 hPa
Bewolking: Licht bewolkt
Zicht: meer dan 10 km
Bewolking: Licht bewolkt 1066.8 m
EBOS 211720Z 28010KT 9999 FEW035 20/13 Q1023 NOSIG
  

Script ontwikkeld door  Saratoga-weather.org Aangepast voor de template door  Weerstation Leuven

U vindt ons ook hier:

UK Metoffice

WeatherCloud

European Weather Network

Weather Underground

Benelux Weather Network

AWEKAS

WeatherlinkIP

Het Weer Aktueel

Apparatuur in gebruik:

Weer-station
Davis VP2 weatherstation

Weer-programma
Meteobridge

Weer-computer
D-Link DIR-505

Webleverancier
Robohost

Davis VP2 weatherstation

Meteobridge

D-Link DIR-505

Robohost